Atlanta, MI

8:05 PM EST on December 19, 2014 (GMT -0500)
Grayling | Change Station
CLOSE
Current Station
Airport
Location: Grayling,
Elevation: 1158 ft
Nearby Weather Stations

Elev 1158 ft 44.68 °N, 84.73 °W | Updated 10 minutes ago

Clear
Clear
12 °F
Feels Like 12 °F
N
0
Wind Variable Wind from North

Today
High -- | Low -- °F
--% Chance of Precip.
Yesterday
High -- | Low -- °F
Precip. -- in
8:10 AM 4:56 PM
Waning Crescent, 5% visible
Pressure 30.29 in
Visibility 1.2 miles
Clouds
Dew Point 10 °F
Humidity 92%
Rainfall 0.00 in
Snow Depth Not available.
UV Not available.
Pollen .10 out of 12
Air Quality Not available.
Flu Activity Not available.
METAR KGOV 200055Z AUTO 00000KT 1 1/4SM BR VV007 M11/M12 A3029 RMK AO2 T11141125

More Conditions Fewer Conditions

Pressure 30.29 in
Visibility 1.2 miles
Clouds
Dew Point 10 °F
Humidity 92%
Rainfall 0.00 in
Snow Depth Not available.
UV Not available.
Pollen .10 out of 12
Air Quality Not available.
Flu Activity Not available.
METAR KGOV 200055Z AUTO 00000KT 1 1/4SM BR VV007 M11/M12 A3029 RMK AO2 T11141125

More Conditions Fewer Conditions

Nowcast | as of 8:00 PM EST on December 19, 2014

At 9 PM...clear. Temperature 10 above. Light winds. At 11 PM...clear. Temperature 7 above. Light winds. At 1 am...clear. Temperature 6 above. Light winds. At 3 am...clear. Temperature 5 above. Light winds.

×

10-Day Weather Forecast

Almanac

Astronomy

Dec. 19, 2014 Rise Set
Actual Time
Civil Twilight
Nautical Twilight
Astronomical Twilight
Moon
Length of Visible Light
Length of Day
Tomorrow will be .
, % of the Moon is Illuminated

Today's Extremes

State Highs State Lows

Community

WunderPhotos

Upload Photos

1,779,095 photos uploaded!

WunderBlogs® & News

Nearby

Air Quality

  Air Quality AQ Index Pollutant
Not available.

Snow Depth

Station Depth Elevation

Earthquake Activity

City Distance Mag. Time & Date
Minimum magnitude displayed is 2.5.

Coastal Water Temperatures

Place Temperature

Nearby Weather Stations